sensor_id;sensor_type;location;lat;lon;timestamp;temperature;humidity
28193;DHT22;15473;50.840;3.396;2023-02-26T00:02:38;-0.50;99.90
28193;DHT22;15473;50.840;3.396;2023-02-26T00:05:27;-0.60;99.90
28193;DHT22;15473;50.840;3.396;2023-02-26T00:08:19;-0.60;99.90
28193;DHT22;15473;50.840;3.396;2023-02-26T00:11:06;-0.60;99.90
28193;DHT22;15473;50.840;3.396;2023-02-26T00:13:52;-0.60;99.90
28193;DHT22;15473;50.840;3.396;2023-02-26T00:16:39;-0.60;99.90
28193;DHT22;15473;50.840;3.396;2023-02-26T00:19:25;-0.60;99.90
28193;DHT22;15473;50.840;3.396;2023-02-26T00:22:16;-0.70;99.90
28193;DHT22;15473;50.840;3.396;2023-02-26T00:25:08;-0.70;99.90
28193;DHT22;15473;50.840;3.396;2023-02-26T00:27:55;-0.70;99.90
28193;DHT22;15473;50.840;3.396;2023-02-26T00:30:42;-0.70;99.90
28193;DHT22;15473;50.840;3.396;2023-02-26T00:33:34;-0.80;99.90
28193;DHT22;15473;50.840;3.396;2023-02-26T00:36:44;-0.80;99.90
28193;DHT22;15473;50.840;3.396;2023-02-26T00:42:41;-0.80;99.90
28193;DHT22;15473;50.840;3.396;2023-02-26T00:45:26;-0.80;99.90
28193;DHT22;15473;50.840;3.396;2023-02-26T00:51:09;-0.90;99.90
28193;DHT22;15473;50.840;3.396;2023-02-26T00:53:57;-0.90;99.90
28193;DHT22;15473;50.840;3.396;2023-02-26T00:56:41;-0.90;99.90
28193;DHT22;15473;50.840;3.396;2023-02-26T00:59:27;-0.90;99.90
28193;DHT22;15473;50.840;3.396;2023-02-26T01:02:13;-1.00;99.90
28193;DHT22;15473;50.840;3.396;2023-02-26T01:04:59;-0.90;99.90
28193;DHT22;15473;50.840;3.396;2023-02-26T01:07:53;-1.00;99.90
28193;DHT22;15473;50.840;3.396;2023-02-26T01:10:37;-1.00;99.90
28193;DHT22;15473;50.840;3.396;2023-02-26T01:13:24;-1.00;99.90
28193;DHT22;15473;50.840;3.396;2023-02-26T01:16:12;-1.00;99.90
28193;DHT22;15473;50.840;3.396;2023-02-26T01:19:00;-1.00;99.90
28193;DHT22;15473;50.840;3.396;2023-02-26T01:21:50;-1.10;99.90
28193;DHT22;15473;50.840;3.396;2023-02-26T01:24:37;-1.10;99.90
28193;DHT22;15473;50.840;3.396;2023-02-26T01:27:23;-1.10;99.90
28193;DHT22;15473;50.840;3.396;2023-02-26T01:30:09;-1.10;99.90
28193;DHT22;15473;50.840;3.396;2023-02-26T01:35:46;-1.10;99.90
28193;DHT22;15473;50.840;3.396;2023-02-26T01:38:37;-1.10;99.90
28193;DHT22;15473;50.840;3.396;2023-02-26T01:44:26;-1.20;99.90
28193;DHT22;15473;50.840;3.396;2023-02-26T01:50:22;-1.20;99.90
28193;DHT22;15473;50.840;3.396;2023-02-26T01:53:23;-1.20;99.90
28193;DHT22;15473;50.840;3.396;2023-02-26T01:56:11;-1.20;99.90
28193;DHT22;15473;50.840;3.396;2023-02-26T01:59:03;-1.20;99.90
28193;DHT22;15473;50.840;3.396;2023-02-26T02:01:53;-1.20;99.90
28193;DHT22;15473;50.840;3.396;2023-02-26T02:04:42;-1.20;99.90
28193;DHT22;15473;50.840;3.396;2023-02-26T02:07:28;-1.20;99.90
28193;DHT22;15473;50.840;3.396;2023-02-26T02:10:14;-1.10;99.90
28193;DHT22;15473;50.840;3.396;2023-02-26T02:13:11;-1.00;99.90
28193;DHT22;15473;50.840;3.396;2023-02-26T02:16:16;-0.90;99.90
28193;DHT22;15473;50.840;3.396;2023-02-26T02:19:21;-0.80;99.90
28193;DHT22;15473;50.840;3.396;2023-02-26T02:22:11;-0.70;99.90
28193;DHT22;15473;50.840;3.396;2023-02-26T02:31:10;-0.40;99.90
28193;DHT22;15473;50.840;3.396;2023-02-26T02:34:12;-0.30;99.90
28193;DHT22;15473;50.840;3.396;2023-02-26T02:37:01;-0.20;99.90
28193;DHT22;15473;50.840;3.396;2023-02-26T02:40:00;-0.20;99.90
28193;DHT22;15473;50.840;3.396;2023-02-26T02:42:54;-0.10;99.90
28193;DHT22;15473;50.840;3.396;2023-02-26T02:48:57;0.10;99.90
28193;DHT22;15473;50.840;3.396;2023-02-26T02:51:51;0.10;99.90
28193;DHT22;15473;50.840;3.396;2023-02-26T02:54:53;0.20;99.90
28193;DHT22;15473;50.840;3.396;2023-02-26T02:57:46;0.20;99.90
28193;DHT22;15473;50.840;3.396;2023-02-26T03:00:27;0.30;99.90
28193;DHT22;15473;50.840;3.396;2023-02-26T03:06:01;0.40;99.90
28193;DHT22;15473;50.840;3.396;2023-02-26T03:08:48;0.40;99.90
28193;DHT22;15473;50.840;3.396;2023-02-26T03:11:34;0.40;99.90
28193;DHT22;15473;50.840;3.396;2023-02-26T03:14:21;0.50;99.90
28193;DHT22;15473;50.840;3.396;2023-02-26T03:17:26;0.50;99.90
28193;DHT22;15473;50.840;3.396;2023-02-26T03:20:31;0.50;99.90
28193;DHT22;15473;50.840;3.396;2023-02-26T03:23:20;0.50;99.90
28193;DHT22;15473;50.840;3.396;2023-02-26T03:26:13;0.40;99.90
28193;DHT22;15473;50.840;3.396;2023-02-26T03:29:42;0.40;99.90
28193;DHT22;15473;50.840;3.396;2023-02-26T03:31:54;0.40;99.90
28193;DHT22;15473;50.840;3.396;2023-02-26T03:34:45;0.40;99.90
28193;DHT22;15473;50.840;3.396;2023-02-26T03:37:41;0.40;99.90
28193;DHT22;15473;50.840;3.396;2023-02-26T03:40:38;0.40;99.90
28193;DHT22;15473;50.840;3.396;2023-02-26T03:43:24;0.40;99.90
28193;DHT22;15473;50.840;3.396;2023-02-26T03:46:09;0.50;99.90
28193;DHT22;15473;50.840;3.396;2023-02-26T03:48:56;0.50;99.90
28193;DHT22;15473;50.840;3.396;2023-02-26T03:51:49;0.50;99.90
28193;DHT22;15473;50.840;3.396;2023-02-26T03:54:54;0.50;99.90
28193;DHT22;15473;50.840;3.396;2023-02-26T03:57:39;0.50;99.90
28193;DHT22;15473;50.840;3.396;2023-02-26T04:00:25;0.50;99.90
28193;DHT22;15473;50.840;3.396;2023-02-26T04:03:13;0.50;99.90
28193;DHT22;15473;50.840;3.396;2023-02-26T04:06:05;0.40;99.90
28193;DHT22;15473;50.840;3.396;2023-02-26T04:08:58;0.40;99.90
28193;DHT22;15473;50.840;3.396;2023-02-26T04:11:43;0.40;99.90
28193;DHT22;15473;50.840;3.396;2023-02-26T04:14:36;0.40;99.90
28193;DHT22;15473;50.840;3.396;2023-02-26T04:17:21;0.40;99.90
28193;DHT22;15473;50.840;3.396;2023-02-26T04:20:07;0.40;99.90
28193;DHT22;15473;50.840;3.396;2023-02-26T04:22:57;0.40;99.90
28193;DHT22;15473;50.840;3.396;2023-02-26T04:25:43;0.40;99.90
28193;DHT22;15473;50.840;3.396;2023-02-26T04:28:28;0.40;99.90
28193;DHT22;15473;50.840;3.396;2023-02-26T04:31:17;0.40;99.90
28193;DHT22;15473;50.840;3.396;2023-02-26T04:34:03;0.40;99.90
28193;DHT22;15473;50.840;3.396;2023-02-26T04:36:52;0.40;99.90
28193;DHT22;15473;50.840;3.396;2023-02-26T04:39:38;0.30;99.90
28193;DHT22;15473;50.840;3.396;2023-02-26T04:42:30;0.30;99.90
28193;DHT22;15473;50.840;3.396;2023-02-26T04:45:22;0.30;99.90
28193;DHT22;15473;50.840;3.396;2023-02-26T04:48:12;0.30;99.90
28193;DHT22;15473;50.840;3.396;2023-02-26T04:51:05;0.20;99.90
28193;DHT22;15473;50.840;3.396;2023-02-26T04:53:57;0.20;99.90
28193;DHT22;15473;50.840;3.396;2023-02-26T04:56:44;0.20;99.90
28193;DHT22;15473;50.840;3.396;2023-02-26T04:59:34;0.20;99.90
28193;DHT22;15473;50.840;3.396;2023-02-26T05:02:23;0.10;99.90
28193;DHT22;15473;50.840;3.396;2023-02-26T05:05:11;0.10;99.90
28193;DHT22;15473;50.840;3.396;2023-02-26T05:07:57;0.00;99.90
28193;DHT22;15473;50.840;3.396;2023-02-26T05:10:49;0.00;99.90
28193;DHT22;15473;50.840;3.396;2023-02-26T05:13:41;0.00;99.90
28193;DHT22;15473;50.840;3.396;2023-02-26T05:16:27;-0.10;99.90
28193;DHT22;15473;50.840;3.396;2023-02-26T05:19:18;-0.10;99.90
28193;DHT22;15473;50.840;3.396;2023-02-26T05:22:04;-0.20;99.90
28193;DHT22;15473;50.840;3.396;2023-02-26T05:24:51;-0.20;99.90
28193;DHT22;15473;50.840;3.396;2023-02-26T05:27:37;-0.20;99.90
28193;DHT22;15473;50.840;3.396;2023-02-26T05:30:23;-0.30;99.90
28193;DHT22;15473;50.840;3.396;2023-02-26T05:33:09;-0.20;99.90
28193;DHT22;15473;50.840;3.396;2023-02-26T05:36:01;-0.30;99.90
28193;DHT22;15473;50.840;3.396;2023-02-26T05:38:50;-0.30;99.90
28193;DHT22;15473;50.840;3.396;2023-02-26T05:41:44;-0.30;99.90
28193;DHT22;15473;50.840;3.396;2023-02-26T05:44:37;-0.40;99.90
28193;DHT22;15473;50.840;3.396;2023-02-26T05:47:24;-0.40;99.90
28193;DHT22;15473;50.840;3.396;2023-02-26T05:50:16;-0.40;99.90
28193;DHT22;15473;50.840;3.396;2023-02-26T05:53:02;-0.40;99.90
28193;DHT22;15473;50.840;3.396;2023-02-26T05:55:47;-0.40;99.90
28193;DHT22;15473;50.840;3.396;2023-02-26T05:58:40;-0.40;99.90
28193;DHT22;15473;50.840;3.396;2023-02-26T06:01:32;-0.50;99.90
28193;DHT22;15473;50.840;3.396;2023-02-26T06:04:18;-0.50;99.90
28193;DHT22;15473;50.840;3.396;2023-02-26T06:07:10;-0.50;99.90
28193;DHT22;15473;50.840;3.396;2023-02-26T06:10:02;-0.60;99.90
28193;DHT22;15473;50.840;3.396;2023-02-26T06:12:49;-0.60;99.90
28193;DHT22;15473;50.840;3.396;2023-02-26T06:15:34;-0.60;99.90
28193;DHT22;15473;50.840;3.396;2023-02-26T06:18:25;-0.70;99.90
28193;DHT22;15473;50.840;3.396;2023-02-26T06:21:11;-0.70;99.90
28193;DHT22;15473;50.840;3.396;2023-02-26T06:23:57;-0.70;99.90
28193;DHT22;15473;50.840;3.396;2023-02-26T06:26:42;-0.70;99.90
28193;DHT22;15473;50.840;3.396;2023-02-26T06:29:28;-0.80;99.90
28193;DHT22;15473;50.840;3.396;2023-02-26T06:32:13;-0.80;99.90
28193;DHT22;15473;50.840;3.396;2023-02-26T06:35:05;-0.90;99.90
28193;DHT22;15473;50.840;3.396;2023-02-26T06:37:55;-0.90;99.90
28193;DHT22;15473;50.840;3.396;2023-02-26T06:40:47;-0.90;99.90
28193;DHT22;15473;50.840;3.396;2023-02-26T06:43:36;-0.90;99.90
28193;DHT22;15473;50.840;3.396;2023-02-26T06:46:29;-1.00;99.90
28193;DHT22;15473;50.840;3.396;2023-02-26T06:49:20;-1.00;99.90
28193;DHT22;15473;50.840;3.396;2023-02-26T06:52:07;-1.00;99.90
28193;DHT22;15473;50.840;3.396;2023-02-26T06:54:53;-1.00;99.90
28193;DHT22;15473;50.840;3.396;2023-02-26T06:57:45;-1.00;99.90
28193;DHT22;15473;50.840;3.396;2023-02-26T07:00:30;-1.00;99.90
28193;DHT22;15473;50.840;3.396;2023-02-26T07:03:16;-1.00;99.90
28193;DHT22;15473;50.840;3.396;2023-02-26T07:06:02;-1.00;99.90
28193;DHT22;15473;50.840;3.396;2023-02-26T07:08:48;-1.00;99.90
28193;DHT22;15473;50.840;3.396;2023-02-26T07:11:40;-1.00;99.90
28193;DHT22;15473;50.840;3.396;2023-02-26T07:14:32;-0.90;99.90
28193;DHT22;15473;50.840;3.396;2023-02-26T07:17:21;-0.90;99.90
28193;DHT22;15473;50.840;3.396;2023-02-26T07:20:13;-0.80;99.90
28193;DHT22;15473;50.840;3.396;2023-02-26T07:23:04;-0.80;99.90
28193;DHT22;15473;50.840;3.396;2023-02-26T07:25:50;-0.70;99.90
28193;DHT22;15473;50.840;3.396;2023-02-26T07:28:35;-0.70;99.90
28193;DHT22;15473;50.840;3.396;2023-02-26T07:31:34;-0.60;99.90
28193;DHT22;15473;50.840;3.396;2023-02-26T07:34:26;-0.50;99.90
28193;DHT22;15473;50.840;3.396;2023-02-26T07:37:13;-0.50;99.90
28193;DHT22;15473;50.840;3.396;2023-02-26T07:39:59;-0.40;99.90
28193;DHT22;15473;50.840;3.396;2023-02-26T07:42:46;-0.30;99.90
28193;DHT22;15473;50.840;3.396;2023-02-26T07:45:31;-0.20;99.90
28193;DHT22;15473;50.840;3.396;2023-02-26T07:48:23;-0.20;99.90
28193;DHT22;15473;50.840;3.396;2023-02-26T07:51:15;-0.10;99.90
28193;DHT22;15473;50.840;3.396;2023-02-26T07:54:07;0.00;99.90
28193;DHT22;15473;50.840;3.396;2023-02-26T07:56:59;0.10;99.90
28193;DHT22;15473;50.840;3.396;2023-02-26T07:59:44;0.20;99.90
28193;DHT22;15473;50.840;3.396;2023-02-26T08:02:36;0.40;99.90
28193;DHT22;15473;50.840;3.396;2023-02-26T08:05:28;0.40;99.90
28193;DHT22;15473;50.840;3.396;2023-02-26T08:08:14;0.50;99.90
28193;DHT22;15473;50.840;3.396;2023-02-26T08:11:06;0.60;99.90
28193;DHT22;15473;50.840;3.396;2023-02-26T08:13:52;0.70;99.90
28193;DHT22;15473;50.840;3.396;2023-02-26T08:16:44;0.80;99.90
28193;DHT22;15473;50.840;3.396;2023-02-26T08:19:43;0.90;99.90
28193;DHT22;15473;50.840;3.396;2023-02-26T08:22:30;1.10;99.90
28193;DHT22;15473;50.840;3.396;2023-02-26T08:25:15;1.20;99.90
28193;DHT22;15473;50.840;3.396;2023-02-26T08:28:08;1.30;99.90
28193;DHT22;15473;50.840;3.396;2023-02-26T08:31:06;1.40;99.90
28193;DHT22;15473;50.840;3.396;2023-02-26T08:33:52;1.50;99.90
28193;DHT22;15473;50.840;3.396;2023-02-26T08:36:43;1.70;99.90
28193;DHT22;15473;50.840;3.396;2023-02-26T08:39:35;1.80;99.90
28193;DHT22;15473;50.840;3.396;2023-02-26T08:42:22;2.00;99.90
28193;DHT22;15473;50.840;3.396;2023-02-26T08:45:08;2.30;99.90
28193;DHT22;15473;50.840;3.396;2023-02-26T08:47:55;2.50;99.90
28193;DHT22;15473;50.840;3.396;2023-02-26T08:50:41;2.80;99.90
28193;DHT22;15473;50.840;3.396;2023-02-26T08:53:32;3.10;99.90
28193;DHT22;15473;50.840;3.396;2023-02-26T08:56:17;3.30;99.90
28193;DHT22;15473;50.840;3.396;2023-02-26T08:59:03;3.40;99.90
28193;DHT22;15473;50.840;3.396;2023-02-26T09:01:56;3.40;99.90
28193;DHT22;15473;50.840;3.396;2023-02-26T09:04:42;3.50;99.90
28193;DHT22;15473;50.840;3.396;2023-02-26T09:07:34;3.60;99.90
28193;DHT22;15473;50.840;3.396;2023-02-26T09:10:26;3.60;99.90
28193;DHT22;15473;50.840;3.396;2023-02-26T09:13:13;3.70;99.90
28193;DHT22;15473;50.840;3.396;2023-02-26T09:15:59;3.70;99.90
28193;DHT22;15473;50.840;3.396;2023-02-26T09:18:51;3.80;99.90
28193;DHT22;15473;50.840;3.396;2023-02-26T09:21:40;3.90;99.90
28193;DHT22;15473;50.840;3.396;2023-02-26T09:24:25;4.00;99.90
28193;DHT22;15473;50.840;3.396;2023-02-26T09:27:17;4.10;99.90
28193;DHT22;15473;50.840;3.396;2023-02-26T09:30:03;4.20;99.90
28193;DHT22;15473;50.840;3.396;2023-02-26T09:32:53;4.40;99.90
28193;DHT22;15473;50.840;3.396;2023-02-26T09:35:41;4.50;99.90
28193;DHT22;15473;50.840;3.396;2023-02-26T09:38:33;4.60;99.90
28193;DHT22;15473;50.840;3.396;2023-02-26T09:41:27;4.80;99.90
28193;DHT22;15473;50.840;3.396;2023-02-26T09:44:14;4.90;99.90
28193;DHT22;15473;50.840;3.396;2023-02-26T09:47:16;5.10;99.90
28193;DHT22;15473;50.840;3.396;2023-02-26T09:50:10;5.20;99.90
28193;DHT22;15473;50.840;3.396;2023-02-26T09:56:15;5.70;99.90
28193;DHT22;15473;50.840;3.396;2023-02-26T09:59:00;5.90;99.90
28193;DHT22;15473;50.840;3.396;2023-02-26T10:01:58;6.00;99.90
28193;DHT22;15473;50.840;3.396;2023-02-26T10:13:50;6.80;99.90
28193;DHT22;15473;50.840;3.396;2023-02-26T10:16:47;7.10;99.90
28193;DHT22;15473;50.840;3.396;2023-02-26T10:19:37;7.50;99.90
28193;DHT22;15473;50.840;3.396;2023-02-26T10:25:25;8.80;99.90
28193;DHT22;15473;50.840;3.396;2023-02-26T10:28:37;9.90;99.90
28193;DHT22;15473;50.840;3.396;2023-02-26T10:32:10;11.30;99.90
28193;DHT22;15473;50.840;3.396;2023-02-26T10:34:34;13.00;99.90
28193;DHT22;15473;50.840;3.396;2023-02-26T10:40:50;16.60;99.90
28193;DHT22;15473;50.840;3.396;2023-02-26T10:43:46;17.80;99.90
28193;DHT22;15473;50.840;3.396;2023-02-26T10:46:53;19.00;99.90
28193;DHT22;15473;50.840;3.396;2023-02-26T10:52:25;19.30;99.90
28193;DHT22;15473;50.840;3.396;2023-02-26T10:58:28;19.10;99.90
28193;DHT22;15473;50.840;3.396;2023-02-26T11:01:21;18.90;99.90
28193;DHT22;15473;50.840;3.396;2023-02-26T11:04:11;18.60;99.90
28193;DHT22;15473;50.840;3.396;2023-02-26T11:07:00;18.30;99.90
28193;DHT22;15473;50.840;3.396;2023-02-26T11:09:50;18.40;99.90
28193;DHT22;15473;50.840;3.396;2023-02-26T11:12:42;18.60;99.90
28193;DHT22;15473;50.840;3.396;2023-02-26T11:15:28;18.60;99.90
28193;DHT22;15473;50.840;3.396;2023-02-26T11:18:28;18.80;99.90
28193;DHT22;15473;50.840;3.396;2023-02-26T11:21:22;19.40;99.90
28193;DHT22;15473;50.840;3.396;2023-02-26T11:24:09;20.30;99.90
28193;DHT22;15473;50.840;3.396;2023-02-26T11:27:02;21.30;99.90
28193;DHT22;15473;50.840;3.396;2023-02-26T11:29:56;22.30;99.90
28193;DHT22;15473;50.840;3.396;2023-02-26T11:32:50;23.40;99.90
28193;DHT22;15473;50.840;3.396;2023-02-26T11:35:42;24.50;99.90
28193;DHT22;15473;50.840;3.396;2023-02-26T11:38:32;25.50;99.90
28193;DHT22;15473;50.840;3.396;2023-02-26T11:41:24;26.40;99.90
28193;DHT22;15473;50.840;3.396;2023-02-26T11:44:18;27.00;99.90
28193;DHT22;15473;50.840;3.396;2023-02-26T11:47:17;27.40;99.80
28193;DHT22;15473;50.840;3.396;2023-02-26T11:50:12;27.60;98.90
28193;DHT22;15473;50.840;3.396;2023-02-26T11:53:06;27.40;97.80
28193;DHT22;15473;50.840;3.396;2023-02-26T11:56:01;27.70;97.60
28193;DHT22;15473;50.840;3.396;2023-02-26T11:58:49;28.40;96.20
28193;DHT22;15473;50.840;3.396;2023-02-26T12:01:35;29.00;95.50
28193;DHT22;15473;50.840;3.396;2023-02-26T12:04:28;27.40;95.70
28193;DHT22;15473;50.840;3.396;2023-02-26T12:07:15;27.20;95.60
28193;DHT22;15473;50.840;3.396;2023-02-26T12:10:12;28.30;95.00
28193;DHT22;15473;50.840;3.396;2023-02-26T12:13:08;28.50;94.70
28193;DHT22;15473;50.840;3.396;2023-02-26T12:16:04;28.50;93.30
28193;DHT22;15473;50.840;3.396;2023-02-26T12:19:04;29.20;94.30
28193;DHT22;15473;50.840;3.396;2023-02-26T12:25:16;29.80;93.50
28193;DHT22;15473;50.840;3.396;2023-02-26T12:55:24;20.10;89.10
28193;DHT22;15473;50.840;3.396;2023-02-26T13:07:08;19.70;85.90
28193;DHT22;15473;50.840;3.396;2023-02-26T13:13:16;20.00;87.30
28193;DHT22;15473;50.840;3.396;2023-02-26T13:19:15;19.80;88.70
28193;DHT22;15473;50.840;3.396;2023-02-26T13:22:22;19.70;89.60
28193;DHT22;15473;50.840;3.396;2023-02-26T13:27:39;19.60;86.70
28193;DHT22;15473;50.840;3.396;2023-02-26T13:30:33;19.60;88.60
28193;DHT22;15473;50.840;3.396;2023-02-26T13:33:32;19.60;87.50
28193;DHT22;15473;50.840;3.396;2023-02-26T13:36:23;19.50;90.20
28193;DHT22;15473;50.840;3.396;2023-02-26T13:42:25;19.60;89.60
28193;DHT22;15473;50.840;3.396;2023-02-26T13:45:31;19.50;88.20
28193;DHT22;15473;50.840;3.396;2023-02-26T13:51:24;18.70;88.70
28193;DHT22;15473;50.840;3.396;2023-02-26T13:57:22;18.60;89.60
28193;DHT22;15473;50.840;3.396;2023-02-26T14:03:10;18.50;87.80
28193;DHT22;15473;50.840;3.396;2023-02-26T14:09:01;18.70;90.10
28193;DHT22;15473;50.840;3.396;2023-02-26T14:14:42;18.20;90.60
28193;DHT22;15473;50.840;3.396;2023-02-26T14:17:36;18.20;90.00
28193;DHT22;15473;50.840;3.396;2023-02-26T14:20:31;18.30;89.40
28193;DHT22;15473;50.840;3.396;2023-02-26T14:23:33;18.30;90.40
28193;DHT22;15473;50.840;3.396;2023-02-26T14:26:27;18.30;89.00
28193;DHT22;15473;50.840;3.396;2023-02-26T14:29:14;18.30;90.10
28193;DHT22;15473;50.840;3.396;2023-02-26T14:35:11;18.00;88.80
28193;DHT22;15473;50.840;3.396;2023-02-26T14:38:14;16.90;90.80
28193;DHT22;15473;50.840;3.396;2023-02-26T14:41:05;16.30;90.70
28193;DHT22;15473;50.840;3.396;2023-02-26T14:44:02;16.20;91.30
28193;DHT22;15473;50.840;3.396;2023-02-26T14:46:52;16.20;90.60
28193;DHT22;15473;50.840;3.396;2023-02-26T14:49:45;16.40;90.80
28193;DHT22;15473;50.840;3.396;2023-02-26T14:55:43;16.40;92.10
28193;DHT22;15473;50.840;3.396;2023-02-26T15:01:40;16.30;92.80
28193;DHT22;15473;50.840;3.396;2023-02-26T15:04:22;16.10;93.20
28193;DHT22;15473;50.840;3.396;2023-02-26T15:10:18;15.60;92.80
28193;DHT22;15473;50.840;3.396;2023-02-26T15:16:34;14.60;94.00
28193;DHT22;15473;50.840;3.396;2023-02-26T15:25:30;12.80;95.60
28193;DHT22;15473;50.840;3.396;2023-02-26T15:28:14;12.20;96.10
28193;DHT22;15473;50.840;3.396;2023-02-26T15:31:06;11.70;96.80
28193;DHT22;15473;50.840;3.396;2023-02-26T15:33:59;11.30;97.10
28193;DHT22;15473;50.840;3.396;2023-02-26T15:36:51;10.90;96.80
28193;DHT22;15473;50.840;3.396;2023-02-26T15:39:47;10.50;97.50
28193;DHT22;15473;50.840;3.396;2023-02-26T15:42:37;10.10;97.80
28193;DHT22;15473;50.840;3.396;2023-02-26T15:45:35;9.70;97.40
28193;DHT22;15473;50.840;3.396;2023-02-26T15:48:28;9.50;98.40
28193;DHT22;15473;50.840;3.396;2023-02-26T15:51:21;9.20;99.40
28193;DHT22;15473;50.840;3.396;2023-02-26T15:54:15;9.00;99.90
28193;DHT22;15473;50.840;3.396;2023-02-26T15:57:12;8.70;99.90
28193;DHT22;15473;50.840;3.396;2023-02-26T16:00:06;8.50;99.90
28193;DHT22;15473;50.840;3.396;2023-02-26T16:02:56;8.50;99.90
28193;DHT22;15473;50.840;3.396;2023-02-26T16:05:44;8.50;99.90
28193;DHT22;15473;50.840;3.396;2023-02-26T16:08:36;8.40;99.90
28193;DHT22;15473;50.840;3.396;2023-02-26T16:11:33;8.40;99.90
28193;DHT22;15473;50.840;3.396;2023-02-26T16:14:23;8.30;99.90
28193;DHT22;15473;50.840;3.396;2023-02-26T16:17:24;8.20;99.90
28193;DHT22;15473;50.840;3.396;2023-02-26T16:20:14;8.10;99.90
28193;DHT22;15473;50.840;3.396;2023-02-26T16:23:12;7.90;99.90
28193;DHT22;15473;50.840;3.396;2023-02-26T16:25:58;7.70;99.90
28193;DHT22;15473;50.840;3.396;2023-02-26T16:28:43;7.60;99.90
28193;DHT22;15473;50.840;3.396;2023-02-26T16:31:30;7.50;99.90
28193;DHT22;15473;50.840;3.396;2023-02-26T16:40:29;7.10;99.90
28193;DHT22;15473;50.840;3.396;2023-02-26T16:46:23;6.80;99.90
28193;DHT22;15473;50.840;3.396;2023-02-26T16:49:25;6.70;99.90
28193;DHT22;15473;50.840;3.396;2023-02-26T16:52:14;6.50;99.90
28193;DHT22;15473;50.840;3.396;2023-02-26T16:55:07;6.40;99.90
28193;DHT22;15473;50.840;3.396;2023-02-26T16:57:57;6.30;99.90
28193;DHT22;15473;50.840;3.396;2023-02-26T17:00:45;6.10;99.90
28193;DHT22;15473;50.840;3.396;2023-02-26T17:03:36;6.10;99.90
28193;DHT22;15473;50.840;3.396;2023-02-26T17:06:30;5.90;99.90
28193;DHT22;15473;50.840;3.396;2023-02-26T17:09:30;5.80;99.90
28193;DHT22;15473;50.840;3.396;2023-02-26T17:12:11;5.70;99.90
28193;DHT22;15473;50.840;3.396;2023-02-26T17:14:57;5.60;99.90
28193;DHT22;15473;50.840;3.396;2023-02-26T17:17:50;5.40;99.90
28193;DHT22;15473;50.840;3.396;2023-02-26T17:20:43;5.20;99.90
28193;DHT22;15473;50.840;3.396;2023-02-26T17:23:36;5.10;99.90
28193;DHT22;15473;50.840;3.396;2023-02-26T17:26:28;5.00;99.90
28193;DHT22;15473;50.840;3.396;2023-02-26T17:29:21;4.80;99.90
28193;DHT22;15473;50.840;3.396;2023-02-26T17:32:11;4.70;99.90
28193;DHT22;15473;50.840;3.396;2023-02-26T17:34:57;4.60;99.90
28193;DHT22;15473;50.840;3.396;2023-02-26T17:37:56;4.50;99.90
28193;DHT22;15473;50.840;3.396;2023-02-26T17:40:50;4.40;99.90
28193;DHT22;15473;50.840;3.396;2023-02-26T17:43:39;4.30;99.90
28193;DHT22;15473;50.840;3.396;2023-02-26T17:46:30;4.10;99.90
28193;DHT22;15473;50.840;3.396;2023-02-26T17:49:22;4.00;99.90
28193;DHT22;15473;50.840;3.396;2023-02-26T17:52:08;3.90;99.90
28193;DHT22;15473;50.840;3.396;2023-02-26T17:55:00;3.80;99.90
28193;DHT22;15473;50.840;3.396;2023-02-26T17:57:53;3.70;99.90
28193;DHT22;15473;50.840;3.396;2023-02-26T18:00:46;3.70;99.90
28193;DHT22;15473;50.840;3.396;2023-02-26T18:03:40;3.60;99.90
28193;DHT22;15473;50.840;3.396;2023-02-26T18:06:34;3.50;99.90
28193;DHT22;15473;50.840;3.396;2023-02-26T18:09:23;3.40;99.90
28193;DHT22;15473;50.840;3.396;2023-02-26T18:12:18;3.30;99.90
28193;DHT22;15473;50.840;3.396;2023-02-26T18:15:11;3.30;99.90
28193;DHT22;15473;50.840;3.396;2023-02-26T18:17:56;3.20;99.90
28193;DHT22;15473;50.840;3.396;2023-02-26T18:20:42;3.10;99.90
28193;DHT22;15473;50.840;3.396;2023-02-26T18:23:29;3.10;99.90
28193;DHT22;15473;50.840;3.396;2023-02-26T18:26:22;3.00;99.90
28193;DHT22;15473;50.840;3.396;2023-02-26T18:29:16;3.00;99.90
28193;DHT22;15473;50.840;3.396;2023-02-26T18:32:12;2.90;99.90
28193;DHT22;15473;50.840;3.396;2023-02-26T18:34:58;2.80;99.90
28193;DHT22;15473;50.840;3.396;2023-02-26T18:37:50;2.80;99.90
28193;DHT22;15473;50.840;3.396;2023-02-26T18:40:36;2.70;99.90
28193;DHT22;15473;50.840;3.396;2023-02-26T18:43:22;2.70;99.90
28193;DHT22;15473;50.840;3.396;2023-02-26T18:46:07;2.60;99.90
28193;DHT22;15473;50.840;3.396;2023-02-26T18:48:59;2.60;99.90
28193;DHT22;15473;50.840;3.396;2023-02-26T18:51:52;2.60;99.90
28193;DHT22;15473;50.840;3.396;2023-02-26T18:54:47;2.50;99.90
28193;DHT22;15473;50.840;3.396;2023-02-26T18:57:42;2.40;99.90
28193;DHT22;15473;50.840;3.396;2023-02-26T19:00:27;2.40;99.90
28193;DHT22;15473;50.840;3.396;2023-02-26T19:03:13;2.40;99.90
28193;DHT22;15473;50.840;3.396;2023-02-26T19:06:06;2.30;99.90
28193;DHT22;15473;50.840;3.396;2023-02-26T19:08:54;2.20;99.90
28193;DHT22;15473;50.840;3.396;2023-02-26T19:11:47;2.20;99.90
28193;DHT22;15473;50.840;3.396;2023-02-26T19:14:39;2.20;99.90
28193;DHT22;15473;50.840;3.396;2023-02-26T19:17:27;2.10;99.90
28193;DHT22;15473;50.840;3.396;2023-02-26T19:20:18;2.10;99.90
28193;DHT22;15473;50.840;3.396;2023-02-26T19:23:10;2.00;99.90
28193;DHT22;15473;50.840;3.396;2023-02-26T19:26:02;2.00;99.90
28193;DHT22;15473;50.840;3.396;2023-02-26T19:28:55;2.00;99.90
28193;DHT22;15473;50.840;3.396;2023-02-26T19:31:47;1.90;99.90
28193;DHT22;15473;50.840;3.396;2023-02-26T19:34:34;1.90;99.90
28193;DHT22;15473;50.840;3.396;2023-02-26T19:37:20;1.80;99.90
28193;DHT22;15473;50.840;3.396;2023-02-26T19:40:06;1.80;99.90
28193;DHT22;15473;50.840;3.396;2023-02-26T19:42:57;1.70;99.90
28193;DHT22;15473;50.840;3.396;2023-02-26T19:45:49;1.70;99.90
28193;DHT22;15473;50.840;3.396;2023-02-26T19:48:35;1.70;99.90
28193;DHT22;15473;50.840;3.396;2023-02-26T19:51:26;1.70;99.90
28193;DHT22;15473;50.840;3.396;2023-02-26T19:54:12;1.60;99.90
28193;DHT22;15473;50.840;3.396;2023-02-26T19:57:04;1.60;99.90
28193;DHT22;15473;50.840;3.396;2023-02-26T19:59:49;1.50;99.90
28193;DHT22;15473;50.840;3.396;2023-02-26T20:02:41;1.50;99.90
28193;DHT22;15473;50.840;3.396;2023-02-26T20:05:27;1.50;99.90
28193;DHT22;15473;50.840;3.396;2023-02-26T20:08:16;1.50;99.90
28193;DHT22;15473;50.840;3.396;2023-02-26T20:11:08;1.40;99.90
28193;DHT22;15473;50.840;3.396;2023-02-26T20:14:00;1.40;99.90
28193;DHT22;15473;50.840;3.396;2023-02-26T20:16:46;1.40;99.90
28193;DHT22;15473;50.840;3.396;2023-02-26T20:19:32;1.40;99.90
28193;DHT22;15473;50.840;3.396;2023-02-26T20:22:20;1.40;99.90
28193;DHT22;15473;50.840;3.396;2023-02-26T20:25:14;1.40;99.90
28193;DHT22;15473;50.840;3.396;2023-02-26T20:28:03;1.40;99.90
28193;DHT22;15473;50.840;3.396;2023-02-26T20:30:49;1.40;99.90
28193;DHT22;15473;50.840;3.396;2023-02-26T20:33:41;1.40;99.90
28193;DHT22;15473;50.840;3.396;2023-02-26T20:36:27;1.40;99.90
28193;DHT22;15473;50.840;3.396;2023-02-26T20:39:12;1.30;99.90